Time;durP1;ratioP1;P1;durP2;ratioP2;P2;SDS_P1;SDS_P2;PMS_P1;PMS_P2;Temp;Humidity;BMP_temperature;BMP_pressure;BME280_temperature;BME280_humidity;BME280_pressure;Samples;Min_cycle;Max_cycle;Signal;HPM_P1;HPM_P2
2022/03/19 00:02:00;;;;;;;13.13;4.53;;;;;;;-2.39;66.02;102071.25;5992895;23;20081;-70
2022/03/19 00:04:26;;;;;;;16.85;4.88;;;;;;;-2.50;66.85;102073.06;6016210;23;20030;-68
2022/03/19 00:06:52;;;;;;;18.40;4.97;;;;;;;-2.50;67.64;102086.31;5994093;23;20042;-70
2022/03/19 00:09:18;;;;;;;17.83;4.72;;;;;;;-2.55;67.51;102074.88;5993242;23;20083;-69
2022/03/19 00:11:44;;;;;;;10.90;4.05;;;;;;;-2.54;67.63;102073.97;5993287;23;20113;-69
2022/03/19 00:14:12;;;;;;;17.42;5.40;;;;;;;-2.69;68.47;102070.53;5993141;23;20042;-68
2022/03/19 00:16:39;;;;;;;16.25;5.03;;;;;;;-2.76;69.36;102049.38;6041239;23;20033;-70
2022/03/19 00:19:06;;;;;;;15.15;5.50;;;;;;;-2.74;70.57;102080.28;6017398;23;20049;-70
2022/03/19 00:21:34;;;;;;;14.70;4.85;;;;;;;-2.77;69.85;102072.34;6041355;23;20019;-67
2022/03/19 00:24:02;;;;;;;18.27;5.20;;;;;;;-2.78;69.32;102073.22;5994957;23;20034;-68
2022/03/19 00:26:30;;;;;;;13.68;4.57;;;;;;;-2.79;69.29;102063.50;6016755;23;20041;-68
2022/03/19 00:28:56;;;;;;;16.90;4.93;;;;;;;-2.77;68.94;102079.41;6041647;23;20479;-70
2022/03/19 00:31:22;;;;;;;17.60;4.93;;;;;;;-2.80;68.65;102068.81;6017556;23;20175;-70
2022/03/19 00:33:48;;;;;;;19.27;5.60;;;;;;;-2.84;69.20;102067.97;5993261;23;20105;-70
2022/03/19 00:36:14;;;;;;;13.02;4.10;;;;;;;-2.81;69.84;102061.78;6016420;23;20065;-70
2022/03/19 00:38:40;;;;;;;17.40;5.20;;;;;;;-2.78;69.41;102062.66;6040535;23;20018;-69
2022/03/19 00:41:06;;;;;;;15.13;4.88;;;;;;;-2.80;69.11;102060.88;6016737;23;20071;-70
2022/03/19 00:43:32;;;;;;;15.98;5.10;;;;;;;-2.93;69.32;102067.97;5993776;23;20362;-70
2022/03/19 00:45:58;;;;;;;16.48;5.22;;;;;;;-2.89;68.88;102069.72;5993122;23;20034;-69
2022/03/19 00:48:24;;;;;;;13.85;5.03;;;;;;;-2.97;69.94;102066.22;6016951;23;20361;-70
2022/03/19 00:50:50;;;;;;;14.65;4.63;;;;;;;-3.03;69.85;102055.69;6040261;23;20097;-70
2022/03/19 00:53:16;;;;;;;14.07;4.97;;;;;;;-3.01;69.24;102060.06;6040163;23;20033;-70
2022/03/19 00:55:43;;;;;;;16.90;5.00;;;;;;;-3.04;69.95;102059.22;5993419;23;20082;-70
2022/03/19 00:58:09;;;;;;;19.05;5.78;;;;;;;-3.08;69.79;102068.03;6040453;23;20027;-69
2022/03/19 01:00:35;;;;;;;17.17;5.47;;;;;;;-3.06;70.29;102071.56;6016864;23;20445;-67
2022/03/19 01:03:00;;;;;;;16.92;5.68;;;;;;;-3.15;69.65;102073.34;5993448;23;20034;-69
2022/03/19 01:05:27;;;;;;;15.07;5.32;;;;;;;-3.18;70.84;102081.31;6017384;23;20028;-68
2022/03/19 01:07:55;;;;;;;18.13;5.63;;;;;;;-3.27;71.08;102089.25;6017481;23;20026;-68
2022/03/19 01:10:26;;;;;;;23.45;5.80;;;;;;;-3.28;70.80;102076.94;6016678;23;20038;-71
2022/03/19 01:12:53;;;;;;;19.40;5.68;;;;;;;-3.40;71.96;102066.34;6041172;23;20101;-69
2022/03/19 01:15:19;;;;;;;20.55;6.97;;;;;;;-3.40;71.85;102082.22;6040362;23;20541;-69
2022/03/19 01:17:45;;;;;;;19.23;5.60;;;;;;;-3.32;72.23;102074.31;6018031;23;20066;-69
2022/03/19 01:20:12;;;;;;;17.60;5.53;;;;;;;-3.31;71.17;102074.28;6018318;23;20326;-69
2022/03/19 01:22:39;;;;;;;18.23;5.00;;;;;;;-3.28;70.42;102082.22;6017359;23;20453;-69
2022/03/19 01:25:06;;;;;;;15.77;4.70;;;;;;;-3.20;69.98;102084.84;5993532;23;20063;-67
2022/03/19 01:27:32;;;;;;;16.27;5.25;;;;;;;-3.21;70.16;102081.31;6016562;23;20121;-68
2022/03/19 01:29:59;;;;;;;12.48;5.13;;;;;;;-3.29;69.94;102069.88;6045352;23;20075;-69
2022/03/19 01:32:25;;;;;;;17.00;5.28;;;;;;;-3.26;70.28;102075.13;6051605;23;20528;-68
2022/03/19 01:34:53;;;;;;;18.83;5.55;;;;;;;-3.36;70.13;102081.34;6016269;23;20063;-69
2022/03/19 01:37:20;;;;;;;18.40;5.50;;;;;;;-3.30;70.62;102078.69;6040248;23;20398;-69
2022/03/19 01:39:46;;;;;;;18.65;5.30;;;;;;;-3.30;69.79;102085.75;6040337;23;20022;-68
2022/03/19 01:42:25;;;;;;;17.05;5.00;;;;;;;-3.27;69.84;102077.81;6039647;23;20041;-69
2022/03/19 01:44:52;;;;;;;12.35;4.75;;;;;;;-3.21;69.48;102094.53;5992381;23;20046;-69
2022/03/19 01:47:18;;;;;;;15.65;4.85;;;;;;;-3.26;69.64;102091.00;6016015;23;20466;-70
2022/03/19 01:49:44;;;;;;;15.25;5.22;;;;;;;-3.44;69.86;102060.22;5992245;23;20077;-67
2022/03/19 01:52:09;;;;;;;15.02;5.53;;;;;;;-3.32;70.48;102095.47;5992565;23;20132;-70
2022/03/19 01:54:38;;;;;;;14.88;4.70;;;;;;;-3.25;70.00;102087.50;6015453;23;20019;-70
2022/03/19 01:57:04;;;;;;;16.70;4.93;;;;;;;-3.31;69.20;102092.78;6039835;23;20030;-68
2022/03/19 01:59:37;;;;;;;17.13;4.80;;;;;;;-3.24;69.64;102099.84;5993894;23;20031;-69
2022/03/19 02:02:05;;;;;;;20.00;5.03;;;;;;;-3.26;69.66;102101.59;5993644;23;20022;-69
2022/03/19 02:04:31;;;;;;;15.73;4.80;;;;;;;-3.25;70.20;102103.38;5992764;23;20030;-68
2022/03/19 02:06:57;;;;;;;16.65;5.47;;;;;;;-3.20;69.15;102106.00;6015159;23;20370;-68
2022/03/19 02:09:23;;;;;;;12.68;4.93;;;;;;;-3.24;69.07;102107.78;6040621;23;20106;-68
2022/03/19 02:11:49;;;;;;;16.98;4.78;;;;;;;-3.30;69.19;102098.97;6017728;23;20114;-69
2022/03/19 02:14:15;;;;;;;14.85;5.45;;;;;;;-3.32;70.10;102101.63;5994402;23;20037;-69
2022/03/19 02:16:43;;;;;;;16.48;4.97;;;;;;;-3.27;69.95;102110.41;6040014;23;20082;-68
2022/03/19 02:19:10;;;;;;;15.45;5.03;;;;;;;-3.38;69.90;102111.31;6015774;23;20035;-69
2022/03/19 02:21:47;;;;;;;16.05;5.15;;;;;;;-3.49;69.72;102106.94;6015718;23;20469;-68
2022/03/19 02:26:59;;;;;;;18.30;5.05;;;;;;;-3.37;69.75;102108.66;6019539;23;20098;-67
2022/03/19 02:29:25;;;;;;;16.45;5.35;;;;;;;-3.48;69.92;102111.31;6015503;23;20477;-69
2022/03/19 02:31:54;;;;;;;17.20;4.97;;;;;;;-3.45;70.84;102126.31;6015644;23;20084;-68
2022/03/19 02:34:21;;;;;;;16.73;5.55;;;;;;;-3.45;70.64;102118.38;6039296;23;20154;-68
2022/03/19 02:36:47;;;;;;;15.00;5.65;;;;;;;-3.42;70.90;102121.03;6016094;23;20026;-69
2022/03/19 02:39:16;;;;;;;12.90;5.25;;;;;;;-3.43;70.17;102113.97;6039433;23;20031;-70
2022/03/19 02:41:50;;;;;;;18.85;5.72;;;;;;;-3.41;69.81;102114.84;6015869;23;20054;-68
2022/03/19 02:44:18;;;;;;;16.70;5.60;;;;;;;-3.64;69.89;102102.53;6015705;23;20099;-68
2022/03/19 02:46:46;;;;;;;15.63;5.35;;;;;;;-3.57;70.40;102123.69;6039297;23;20465;-69
2022/03/19 02:49:14;;;;;;;15.13;5.50;;;;;;;-3.67;71.30;102115.75;5992533;23;20027;-70
2022/03/19 02:51:41;;;;;;;24.42;5.70;;;;;;;-3.67;71.24;102115.75;6015355;23;20029;-70
2022/03/19 02:54:09;;;;;;;16.40;4.78;;;;;;;-3.66;71.59;102101.69;6015835;23;20026;-70
2022/03/19 02:56:37;;;;;;;15.32;5.18;;;;;;;-3.77;71.76;102092.84;6015939;23;20063;-71
2022/03/19 02:59:20;;;;;;;21.75;5.75;;;;;;;-3.63;71.54;102114.84;6015052;23;20410;-70
2022/03/19 03:01:48;;;;;;;17.58;5.40;;;;;;;-3.54;71.51;102115.75;6040264;23;20019;-70
2022/03/19 03:04:13;;;;;;;16.48;4.93;;;;;;;-3.66;71.76;102106.06;6016961;23;20035;-69
2022/03/19 03:06:42;;;;;;;17.33;5.32;;;;;;;-3.58;71.56;102125.47;5992756;23;20079;-69
2022/03/19 03:09:09;;;;;;;15.10;5.70;;;;;;;-3.59;71.46;102122.78;6017151;23;20046;-69
2022/03/19 03:11:38;;;;;;;15.70;5.13;;;;;;;-3.49;71.59;102113.97;6015089;23;20027;-68
2022/03/19 03:14:06;;;;;;;17.27;5.20;;;;;;;-3.54;72.02;102126.34;6016948;23;20039;-70
2022/03/19 03:16:32;;;;;;;14.35;5.45;;;;;;;-3.64;71.03;102112.22;5993806;23;20026;-69
2022/03/19 03:19:02;;;;;;;16.17;5.10;;;;;;;-3.66;71.11;102112.25;6018751;23;20042;-70
2022/03/19 03:21:28;;;;;;;14.48;4.93;;;;;;;-3.59;71.03;102106.94;6042328;23;20019;-69
2022/03/19 03:23:55;;;;;;;16.88;5.13;;;;;;;-3.53;71.19;102101.66;5995059;23;20438;-68
2022/03/19 03:26:22;;;;;;;15.00;5.47;;;;;;;-3.59;71.37;102114.88;6041855;23;20042;-71
2022/03/19 03:28:48;;;;;;;18.83;5.82;;;;;;;-3.58;71.28;102108.69;5994159;23;20026;-70
2022/03/19 03:31:14;;;;;;;19.40;5.72;;;;;;;-3.79;71.29;102084.03;5993275;23;20027;-70
2022/03/19 03:33:40;;;;;;;14.65;5.07;;;;;;;-3.61;72.04;102114.00;5993427;23;20085;-69
2022/03/19 03:36:07;;;;;;;15.40;5.13;;;;;;;-3.71;72.24;102108.69;5993547;23;20126;-70
2022/03/19 03:38:35;;;;;;;14.48;5.40;;;;;;;-3.69;72.40;102111.38;5970976;23;20038;-70
2022/03/19 03:41:01;;;;;;;18.30;5.95;;;;;;;-3.71;72.64;102123.69;6041033;23;20026;-69
2022/03/19 03:43:27;;;;;;;17.35;5.32;;;;;;;-3.69;72.17;102121.94;6016550;23;20110;-69
2022/03/19 03:45:54;;;;;;;22.92;5.28;;;;;;;-3.78;72.33;102127.22;6041298;23;20022;-69
2022/03/19 03:48:19;;;;;;;19.63;7.07;;;;;;;-3.88;73.20;102121.03;5994523;23;20062;-69
2022/03/19 03:50:47;;;;;;;45.92;11.80;;;;;;;-3.97;74.28;102121.03;6017726;23;20034;-69
2022/03/19 03:53:12;;;;;;;18.40;5.57;;;;;;;-3.93;74.08;102125.44;5994845;23;20061;-68
2022/03/19 03:55:39;;;;;;;20.55;5.20;;;;;;;-3.90;74.04;102121.03;6016847;23;20026;-70
2022/03/19 03:58:05;;;;;;;17.83;5.13;;;;;;;-3.98;73.87;102111.34;6017339;23;20095;-69
2022/03/19 04:00:32;;;;;;;15.27;5.65;;;;;;;-4.10;73.48;102088.41;6017805;23;20894;-70
2022/03/19 04:02:58;;;;;;;16.92;5.65;;;;;;;-3.86;73.71;102119.28;6018017;23;20023;-70
2022/03/19 04:05:24;;;;;;;19.70;6.10;;;;;;;-3.79;73.08;102136.03;5995046;23;20039;-70
2022/03/19 04:07:50;;;;;;;19.15;6.30;;;;;;;-3.79;73.08;102134.25;6019385;23;20031;-68
2022/03/19 04:10:17;;;;;;;18.75;4.95;;;;;;;-3.76;73.24;102136.91;6017553;23;20050;-69
2022/03/19 04:12:43;;;;;;;12.57;5.20;;;;;;;-3.67;73.11;102141.31;6017103;23;20426;-69
2022/03/19 04:15:10;;;;;;;18.13;5.43;;;;;;;-3.70;73.18;102142.16;5994466;23;20455;-70
2022/03/19 04:17:37;;;;;;;21.92;5.80;;;;;;;-3.74;72.29;102113.97;6041874;23;20027;-70
2022/03/19 04:20:07;;;;;;;17.67;5.05;;;;;;;-3.60;72.57;102134.25;5994522;23;20023;-70
2022/03/19 04:22:41;;;;;;;14.93;5.15;;;;;;;-3.48;72.77;102153.63;6018957;23;20114;-70
2022/03/19 04:25:15;;;;;;;16.98;6.03;;;;;;;-3.45;72.12;102142.19;6018361;23;20030;-70
2022/03/19 04:27:42;;;;;;;17.33;5.40;;;;;;;-3.47;71.71;102143.97;6017708;23;20023;-69
2022/03/19 04:30:12;;;;;;;21.02;5.55;;;;;;;-3.39;71.70;102144.81;5994668;23;20022;-70
2022/03/19 04:32:40;;;;;;;19.27;5.85;;;;;;;-3.38;71.07;102149.22;6019270;23;20027;-69
2022/03/19 04:36:29;;;;;;;18.40;5.38;;;;;;;-3.35;72.07;102165.09;6018858;23;20105;-70
2022/03/19 04:37:52;;;;;;;17.75;6.13;;;;;;;-3.29;71.29;102159.81;6023840;23;20030;-68
2022/03/19 04:40:18;;;;;;;17.08;5.38;;;;;;;-3.31;72.17;102161.56;6018344;23;20075;-70
2022/03/19 04:42:44;;;;;;;15.65;5.55;;;;;;;-3.30;71.56;102152.72;6017708;23;20039;-70
2022/03/19 04:45:10;;;;;;;19.33;6.38;;;;;;;-3.17;70.79;102149.19;6043133;23;20094;-69
2022/03/19 04:47:36;;;;;;;23.65;6.38;;;;;;;-3.07;70.97;102158.00;6018415;23;20019;-71
2022/03/19 04:50:04;;;;;;;22.15;6.80;;;;;;;-3.03;70.92;102145.66;5995202;23;20026;-69
2022/03/19 04:52:31;;;;;;;25.85;6.88;;;;;;;-2.86;69.79;102165.00;5995446;23;20054;-70
2022/03/19 04:55:00;;;;;;;19.85;6.95;;;;;;;-2.82;70.67;102156.16;5995476;23;20041;-71
2022/03/19 04:57:29;;;;;;;19.50;6.38;;;;;;;-2.72;69.13;102155.25;6019474;23;20030;-69
2022/03/19 04:59:56;;;;;;;27.17;6.60;;;;;;;-2.53;67.40;102165.75;5994388;23;20138;-71
2022/03/19 05:02:24;;;;;;;21.30;6.97;;;;;;;-2.53;69.87;102164.00;6018035;23;20378;-70
2022/03/19 05:04:54;;;;;;;34.33;8.38;;;;;;;-2.56;71.16;102150.78;6017619;23;20441;-69
2022/03/19 05:07:22;;;;;;;19.13;8.30;;;;;;;-2.34;68.75;102164.81;5994744;23;20038;-70
2022/03/19 05:12:36;;;;;;;23.55;6.85;;;;;;;-2.03;68.86;102177.88;6020573;23;20077;-71
2022/03/19 05:15:06;;;;;;;21.77;7.45;;;;;;;-1.85;66.33;102180.44;6016521;23;20042;-68
2022/03/19 05:17:32;;;;;;;47.70;11.55;;;;;;;-1.78;71.96;102176.84;6017265;23;20023;-70
2022/03/19 05:19:57;;;;;;;33.78;12.13;;;;;;;-1.71;72.40;102178.56;6018271;23;20108;-70
2022/03/19 05:22:23;;;;;;;29.85;12.25;;;;;;;-1.59;72.67;102182.00;6043847;23;20335;-70
2022/03/19 05:24:49;;;;;;;37.55;12.18;;;;;;;-1.48;72.42;102177.50;6019120;23;20035;-70
2022/03/19 05:27:17;;;;;;;30.73;10.30;;;;;;;-1.30;70.97;102190.63;6045518;23;20489;-71
2022/03/19 05:29:42;;;;;;;29.60;10.25;;;;;;;-1.20;70.14;102180.81;5996881;23;20023;-70
2022/03/19 05:32:09;;;;;;;36.92;9.63;;;;;;;-0.92;68.78;102192.00;6016478;23;20030;-70
2022/03/19 05:34:35;;;;;;;27.77;9.10;;;;;;;-0.72;66.69;102178.53;6017649;23;20110;-70
2022/03/19 05:37:03;;;;;;;34.22;10.18;;;;;;;-0.65;65.16;102168.72;6019855;23;20034;-71
2022/03/19 05:39:30;;;;;;;40.78;10.02;;;;;;;-0.37;65.26;102180.75;6018305;23;20027;-70
2022/03/19 05:41:56;;;;;;;21.25;8.30;;;;;;;-0.06;63.85;102191.00;6017812;23;20043;-70
2022/03/19 05:44:22;;;;;;;25.38;8.35;;;;;;;1.46;59.81;102189.31;5996656;23;20466;-72
2022/03/19 05:46:48;;;;;;;21.77;7.70;;;;;;;3.67;52.82;102182.13;6020140;23;20078;-70
2022/03/19 05:49:14;;;;;;;20.95;6.53;;;;;;;5.03;47.70;102175.06;6019076;23;20392;-70
2022/03/19 05:51:41;;;;;;;32.30;6.47;;;;;;;5.99;44.71;102189.44;6042199;23;20019;-69
2022/03/19 05:54:09;;;;;;;19.70;6.20;;;;;;;6.92;41.13;102175.84;6017760;23;20057;-70
2022/03/19 05:56:36;;;;;;;28.88;6.50;;;;;;;7.55;39.80;102181.16;6041890;23;20023;-70
2022/03/19 05:59:03;;;;;;;17.83;5.47;;;;;;;7.80;38.98;102164.75;5993313;23;20383;-71
2022/03/19 06:01:29;;;;;;;22.70;6.38;;;;;;;8.10;37.24;102183.97;6044032;23;20023;-71
2022/03/19 06:03:56;;;;;;;21.77;7.35;;;;;;;8.88;35.84;102162.13;6024738;23;20398;-71
2022/03/19 06:06:26;;;;;;;20.85;6.90;;;;;;;9.84;33.48;102168.78;6043525;23;20061;-70
2022/03/19 06:08:52;;;;;;;25.63;6.97;;;;;;;10.14;32.44;102177.00;5998365;23;20402;-70
2022/03/19 06:11:18;;;;;;;27.13;6.53;;;;;;;10.77;32.49;102176.97;5999102;23;20023;-71
2022/03/19 06:13:44;;;;;;;35.15;7.43;;;;;;;10.60;32.02;102152.75;6018489;23;20428;-72
2022/03/19 06:16:10;;;;;;;38.65;7.25;;;;;;;11.96;31.09;102185.06;6017930;23;20022;-70
2022/03/19 06:18:36;;;;;;;19.75;6.63;;;;;;;12.05;30.08;102183.59;6017549;23;20397;-71
2022/03/19 06:21:03;;;;;;;21.55;6.85;;;;;;;12.21;29.64;102157.25;5993958;23;20038;-66
2022/03/19 06:23:29;;;;;;;39.88;8.57;;;;;;;12.66;29.23;102185.00;6014252;23;20062;-74
2022/03/19 06:25:55;;;;;;;45.05;8.75;;;;;;;12.86;29.16;102201.78;5969225;23;20030;-71
2022/03/19 06:28:22;;;;;;;22.30;7.13;;;;;;;12.45;28.99;102191.84;6052015;23;20019;-78
2022/03/19 06:30:48;;;;;;;24.50;7.90;;;;;;;13.05;28.36;102191.41;6014704;23;20037;-71
2022/03/19 06:33:14;;;;;;;19.92;6.78;;;;;;;12.64;29.88;102181.50;5994007;23;20022;-72
2022/03/19 06:38:28;;;;;;;28.75;7.25;;;;;;;12.68;29.34;102191.19;6019253;23;20122;-72
2022/03/19 06:40:58;;;;;;;;;;;;;;;13.26;27.90;102184.53;5994388;23;20018;-74
2022/03/19 06:43:27;;;;;;;32.78;8.23;;;;;;;13.34;28.41;102158.69;6028920;23;19929;-76
2022/03/19 06:45:57;;;;;;;20.88;7.78;;;;;;;13.57;26.52;102187.84;6043838;23;20426;-70
2022/03/19 06:48:23;;;;;;;23.05;7.30;;;;;;;13.72;29.16;102170.44;6040184;23;20025;-72
2022/03/19 06:50:50;;;;;;;32.05;6.85;;;;;;;14.00;28.27;102171.16;6040531;23;20029;-73
2022/03/19 06:53:16;;;;;;;19.55;7.18;;;;;;;14.07;26.31;102186.03;6017600;23;20426;-73
2022/03/19 06:55:42;;;;;;;27.70;7.38;;;;;;;13.95;27.88;102185.09;6022545;23;20485;-71
2022/03/19 06:58:08;;;;;;;18.85;7.25;;;;;;;14.57;27.37;102189.66;5994971;23;20034;-78
2022/03/19 07:00:35;;;;;;;24.90;8.25;;;;;;;15.05;26.79;102195.09;5972760;23;20049;-71
2022/03/19 07:03:01;;;;;;;23.15;7.63;;;;;;;15.18;27.25;102174.09;6018384;23;20046;-69
2022/03/19 07:05:30;;;;;;;17.17;7.45;;;;;;;15.32;26.28;102174.84;5977902;23;20464;-77
2022/03/19 07:08:00;;;;;;;24.48;6.53;;;;;;;15.54;25.65;102180.38;5975407;23;20587;-72
2022/03/19 07:10:26;;;;;;;17.73;6.63;;;;;;;15.37;25.56;102175.38;5992567;23;20031;-72
2022/03/19 07:12:56;;;;;;;26.73;6.93;;;;;;;16.25;25.95;102178.28;6014884;23;20059;-72
2022/03/19 07:15:29;;;;;;;15.13;6.90;;;;;;;15.66;25.50;102190.31;6039489;23;20023;-72
2022/03/19 07:18:00;;;;;;;27.48;8.10;;;;;;;16.42;25.57;102186.94;6015664;23;20107;-72
2022/03/19 07:20:26;;;;;;;18.92;7.70;;;;;;;16.74;25.34;102176.97;6016059;23;20083;-71
2022/03/19 07:22:55;;;;;;;15.88;6.63;;;;;;;17.50;23.12;102168.63;5994011;23;20026;-71
2022/03/19 07:25:25;;;;;;;24.30;6.85;;;;;;;16.36;24.63;102193.78;6016818;23;20039;-71
2022/03/19 07:27:54;;;;;;;20.77;7.85;;;;;;;16.79;23.82;102185.66;6018796;23;20031;-72
2022/03/19 07:30:21;;;;;;;33.30;7.72;;;;;;;17.03;23.93;102155.34;5991691;23;20019;-71
2022/03/19 07:32:47;;;;;;;22.33;6.63;;;;;;;17.06;23.34;102192.50;6040596;23;20034;-71
2022/03/19 07:35:14;;;;;;;19.80;7.45;;;;;;;17.56;23.29;102181.78;6018437;23;20102;-72
2022/03/19 07:37:41;;;;;;;24.88;6.60;;;;;;;17.78;22.97;102184.38;6015961;23;20381;-71
2022/03/19 07:40:09;;;;;;;13.52;6.50;;;;;;;17.64;22.30;102160.09;6040676;23;20523;-71
2022/03/19 07:42:35;;;;;;;12.82;6.32;;;;;;;18.04;20.99;102190.25;6016060;23;20022;-71
2022/03/19 07:45:02;;;;;;;23.13;6.05;;;;;;;18.30;22.44;102189.78;6040449;23;20093;-71
2022/03/19 07:47:30;;;;;;;17.30;6.30;;;;;;;18.61;21.44;102176.00;6040699;23;20019;-72
2022/03/19 07:49:57;;;;;;;21.65;7.03;;;;;;;18.88;21.29;102184.44;6018669;23;20026;-70
2022/03/19 07:52:24;;;;;;;27.15;7.53;;;;;;;19.25;20.54;102164.53;6042056;23;20348;-71
2022/03/19 07:54:54;;;;;;;23.27;7.47;;;;;;;19.47;18.98;102183.38;5993301;23;20432;-72
2022/03/19 07:57:23;;;;;;;18.05;6.07;;;;;;;18.96;21.08;102179.09;6016526;23;20031;-70
2022/03/19 07:59:50;;;;;;;20.45;7.22;;;;;;;19.50;19.54;102174.88;5994100;23;20426;-70
2022/03/19 08:02:16;;;;;;;15.48;6.20;;;;;;;19.83;19.66;102180.88;6065596;23;20031;-71
2022/03/19 08:04:42;;;;;;;17.42;5.40;;;;;;;19.62;19.92;102177.44;5997203;23;20029;-71
2022/03/19 08:07:08;;;;;;;13.00;4.95;;;;;;;20.24;19.58;102173.19;6019905;23;20037;-71
2022/03/19 08:09:36;;;;;;;23.40;5.57;;;;;;;19.68;18.56;102158.53;5995322;23;20045;-71
2022/03/19 08:12:02;;;;;;;15.10;5.32;;;;;;;19.70;18.40;102163.88;6017576;23;20022;-71
2022/03/19 08:14:29;;;;;;;12.95;5.20;;;;;;;20.11;19.22;102189.13;5994123;23;20023;-70
2022/03/19 08:16:55;;;;;;;11.85;4.97;;;;;;;20.94;17.41;102171.56;6019288;23;20038;-74
2022/03/19 08:19:24;;;;;;;24.25;6.03;;;;;;;20.47;19.31;102187.34;5994779;23;20468;-71
2022/03/19 08:21:52;;;;;;;16.17;5.50;;;;;;;19.59;19.95;102194.19;6018203;23;20038;-71
2022/03/19 08:24:19;;;;;;;19.58;7.13;;;;;;;19.86;19.75;102191.56;6016717;23;20109;-71
2022/03/19 08:26:46;;;;;;;31.65;7.20;;;;;;;20.22;19.06;102198.06;6017593;23;20059;-70
2022/03/19 08:29:13;;;;;;;16.83;5.95;;;;;;;20.90;18.80;102196.78;6017192;23;20035;-70
2022/03/19 08:31:39;;;;;;;17.75;5.57;;;;;;;20.36;19.23;102199.41;5993571;23;20058;-70
2022/03/19 08:34:06;;;;;;;14.07;5.95;;;;;;;20.77;18.85;102197.19;5993027;23;20105;-72
2022/03/19 08:36:32;;;;;;;18.85;6.65;;;;;;;21.32;20.32;102183.28;6020877;23;20027;-74
2022/03/19 08:41:43;;;;;;;23.15;6.25;;;;;;;21.49;17.39;102181.53;5997966;23;20053;-74
2022/03/19 08:44:09;;;;;;;18.27;5.97;;;;;;;21.18;17.29;102194.84;6017864;23;20032;-74
2022/03/19 08:46:36;;;;;;;16.40;5.97;;;;;;;22.03;16.65;102186.84;5995636;23;20030;-74
2022/03/19 08:49:02;;;;;;;23.40;6.72;;;;;;;21.98;18.55;102180.97;5993744;23;20034;-74
2022/03/19 08:51:40;;;;;;;20.27;5.53;;;;;;;21.25;17.24;102197.81;6016857;23;20418;-73
2022/03/19 08:54:18;;;;;;;18.98;5.20;;;;;;;22.47;16.24;102184.81;5998949;23;20093;-74
2022/03/19 08:56:45;;;;;;;16.40;6.40;;;;;;;22.51;16.02;102183.47;5995874;23;20026;-74
2022/03/19 08:59:12;;;;;;;17.00;5.80;;;;;;;21.87;18.49;102202.28;5997815;23;20473;-71
2022/03/19 09:01:41;;;;;;;15.00;6.30;;;;;;;22.70;16.19;102204.34;5997433;23;20031;-74
2022/03/19 09:04:07;;;;;;;19.55;6.07;;;;;;;22.19;18.06;102189.69;5994575;23;20053;-74
2022/03/19 09:06:34;;;;;;;17.95;6.13;;;;;;;22.23;17.10;102207.66;5995780;23;20042;-74
2022/03/19 09:09:02;;;;;;;33.72;8.38;;;;;;;22.12;18.78;102205.13;5995817;23;20027;-73
2022/03/19 09:11:28;;;;;;;;;;;;;;;21.85;17.05;102207.06;5996086;23;20046;-74
2022/03/19 09:13:54;;;;;;;30.00;8.50;;;;;;;21.83;18.76;102203.63;6041313;23;20227;-73
2022/03/19 09:16:20;;;;;;;26.27;6.78;;;;;;;21.70;16.87;102200.44;6020587;23;20078;-75
2022/03/19 09:18:47;;;;;;;17.10;6.88;;;;;;;22.09;16.90;102200.84;6019816;23;20026;-74
2022/03/19 09:21:13;;;;;;;21.02;6.53;;;;;;;22.51;18.11;102194.50;6043193;23;20058;-74
2022/03/19 09:23:39;;;;;;;17.55;5.72;;;;;;;22.55;16.54;102206.03;6017488;23;20027;-74
2022/03/19 09:26:05;;;;;;;18.02;7.65;;;;;;;22.08;15.84;102198.22;6042629;23;20031;-74
2022/03/19 09:28:31;;;;;;;19.08;6.95;;;;;;;22.66;17.06;102186.44;5993548;23;20029;-74
2022/03/19 09:30:57;;;;;;;18.17;6.65;;;;;;;23.74;15.26;102192.75;5997852;23;20058;-74
2022/03/19 09:33:24;;;;;;;24.77;6.75;;;;;;;23.66;15.97;102184.44;6016678;23;20030;-73
2022/03/19 09:35:50;;;;;;;20.00;5.82;;;;;;;23.59;14.81;102200.00;6016171;23;20039;-74
2022/03/19 09:38:17;;;;;;;17.67;5.95;;;;;;;22.67;15.54;102201.97;6015713;23;20280;-74
2022/03/19 09:40:43;;;;;;;17.77;7.18;;;;;;;23.51;15.59;102213.78;6042034;23;20023;-74
2022/03/19 09:43:09;;;;;;;18.80;7.35;;;;;;;23.23;15.04;102205.88;6045520;23;20054;-74
2022/03/19 09:45:38;;;;;;;19.17;6.28;;;;;;;23.50;14.85;102201.03;6015837;23;20109;-74
2022/03/19 09:48:04;;;;;;;15.75;7.05;;;;;;;23.85;15.30;102193.41;6040861;23;20500;-74
2022/03/19 09:50:30;;;;;;;30.45;7.65;;;;;;;23.56;15.94;102206.72;6039336;23;20122;-74
2022/03/19 09:52:57;;;;;;;27.00;8.23;;;;;;;23.06;16.42;102209.63;6018050;23;20022;-73
2022/03/19 09:55:26;;;;;;;44.67;9.25;;;;;;;22.86;17.58;102206.31;6020259;23;20035;-74
2022/03/19 09:57:54;;;;;;;23.30;7.05;;;;;;;22.57;17.42;102193.81;6022581;23;20354;-74
2022/03/19 10:00:22;;;;;;;22.67;7.28;;;;;;;22.41;17.22;102204.78;6021170;23;20037;-76
2022/03/19 10:02:55;;;;;;;35.90;7.40;;;;;;;23.09;15.96;102198.25;6045445;23;20035;-75
2022/03/19 10:10:55;;;;;;;25.77;7.50;;;;;;;23.57;15.67;102196.53;6024172;23;20026;-73
2022/03/19 10:13:23;;;;;;;18.17;7.43;;;;;;;23.15;15.16;102191.22;6017900;23;20029;-73
2022/03/19 10:15:49;;;;;;;21.52;6.90;;;;;;;23.05;15.11;102205.16;5998428;23;20515;-75
2022/03/19 10:18:15;;;;;;;17.40;6.78;;;;;;;23.71;14.70;102209.66;6019380;23;20446;-73
2022/03/19 10:20:42;;;;;;;17.73;6.90;;;;;;;23.88;15.41;102198.56;5997723;23;20453;-74
2022/03/19 10:23:08;;;;;;;20.90;7.10;;;;;;;23.66;14.14;102201.00;5997689;23;20054;-74
2022/03/19 10:25:34;;;;;;;32.85;7.68;;;;;;;23.05;15.74;102196.88;5972731;23;20023;-73
2022/03/19 10:28:02;;;;;;;19.10;7.85;;;;;;;23.29;15.63;102210.72;6019525;23;20099;-75
2022/03/19 10:30:35;;;;;;;15.25;7.07;;;;;;;23.86;14.73;102209.81;6040204;23;20023;-74
2022/03/19 10:33:01;;;;;;;17.70;7.50;;;;;;;23.44;14.62;102212.75;6019905;23;20093;-75
2022/03/19 10:35:35;;;;;;;17.98;6.50;;;;;;;23.55;15.21;102201.38;6017686;23;20022;-74
2022/03/19 10:38:05;;;;;;;27.00;6.25;;;;;;;23.81;14.30;102210.34;6040741;23;20041;-74
2022/03/19 10:40:43;;;;;;;15.65;6.50;;;;;;;23.29;15.86;102213.47;6016324;23;20027;-75
2022/03/19 10:43:10;;;;;;;21.05;6.90;;;;;;;23.64;14.64;102214.13;6016889;23;20042;-74
2022/03/19 10:45:44;;;;;;;18.13;7.30;;;;;;;24.28;14.33;102208.66;5994337;23;20029;-74
2022/03/19 10:48:12;;;;;;;16.85;6.30;;;;;;;23.48;14.92;102203.09;6022429;23;20031;-75
2022/03/19 10:50:42;;;;;;;17.60;6.57;;;;;;;21.90;15.32;102206.56;6002199;23;20034;-78
2022/03/19 10:53:08;;;;;;;17.65;6.35;;;;;;;21.91;15.66;102203.66;6017832;23;20031;-74
2022/03/19 10:55:34;;;;;;;18.42;6.22;;;;;;;22.71;14.91;102196.97;6017164;23;20063;-74
2022/03/19 10:58:01;;;;;;;14.02;6.22;;;;;;;23.20;15.88;102203.44;5992117;23;20033;-74
2022/03/19 11:00:28;;;;;;;16.23;5.85;;;;;;;23.45;15.22;102201.53;6017384;23;20109;-75
2022/03/19 11:02:57;;;;;;;17.88;5.80;;;;;;;21.90;16.25;102179.91;6039023;23;20101;-74
2022/03/19 11:05:24;;;;;;;16.33;6.47;;;;;;;22.55;15.43;102195.00;5995843;23;20083;-72
2022/03/19 11:07:51;;;;;;;13.65;6.28;;;;;;;23.07;15.01;102200.31;5996683;23;20026;-73
2022/03/19 11:10:19;;;;;;;15.18;5.80;;;;;;;23.75;15.71;102199.97;5994747;23;20026;-74
2022/03/19 11:12:50;;;;;;;15.77;5.90;;;;;;;23.79;14.56;102194.97;6018772;23;20082;-74
2022/03/19 11:15:19;;;;;;;14.13;5.53;;;;;;;23.46;14.84;102183.06;6043470;23;20029;-76
2022/03/19 11:17:48;;;;;;;20.10;6.32;;;;;;;23.57;14.70;102191.84;6020118;23;20023;-75
2022/03/19 11:20:14;;;;;;;19.67;6.30;;;;;;;24.09;14.47;102187.78;6042066;23;20533;-71
2022/03/19 11:22:44;;;;;;;14.57;5.45;;;;;;;21.93;15.22;102181.44;5992838;23;20070;-72
2022/03/19 11:25:26;;;;;;;12.85;5.82;;;;;;;22.69;15.75;102180.56;6016485;23;20118;-75
2022/03/19 11:28:08;;;;;;;22.95;6.10;;;;;;;21.46;15.62;102180.97;5994602;23;20073;-74
2022/03/19 11:30:46;;;;;;;19.80;6.32;;;;;;;22.38;15.67;102172.06;5994264;23;20361;-72
2022/03/19 11:39:32;;;;;;;16.60;5.43;;;;;;;22.74;15.69;102174.53;6024183;23;20388;-74
2022/03/19 11:41:59;;;;;;;17.00;5.38;;;;;;;22.54;15.41;102172.09;6030898;23;20065;-76